Decoded Metar for YCFS ( in ) (IATA:) | Meteo·Mobile Aviation Weather
aviador You're here:

YCFS Decoded Metar

in
Report Time2020-02-18 22:30:00
UTC Time2020-02-18 23:10:43
Flight Rules vfr VFR
Wind010° at 13 kt
W.Decomp.*RWY 03: 12.2 kt HW 4.4 kt LCW
RWY 10: 13 kt LCW
Visibility9999 m
Phenomena:N/A
Clouds:N/A
Expected CloudBase > 2,000 ft AGL from Temp-Dew spread
CeilingNone
Temp28°C
Dew Point23°C (74% RH)
Heat Index31.2°C
QNH1004 hPa
Raw Report
METAR YCFS 182230Z AUTO 01013KT 9999 // NCD 28/23 Q1004
RF00.0/000.0=

Extra information for YCFS:More info

Social comments